CYYL

Lynn Lake Airport

Lynn Lake, Manitoba, Canada
METAR CYYL 190600Z AUTO 32007KT 9SM CLR M35/M38 A3038 RMK SLP353
Observed Flight Rules
Jan-19 @ 06:00 UTC (49 minutes ago) Visual Flight Rules
Wind Visibility Clouds
320° at 7 knots 9 miles
  • Clear skies
Temperatures Readings
Current -35°C / -31°F
Dewpoint -38°C / -36°F
Humidity 74%
Altimeter 30.38" Hg
Pressure 1035.3 hPa
Elevation 357
METAR CYYL 190600Z AUTO 32007KT 9SM CLR M35/M38 A3038 RMK SLP353
Observed Flight Rules
Jan-19 @ 06:00 UTC
(49 minutes ago)
VFR
Wind Visibility
320° at 7 knots 9 miles
Clouds
  • Clear skies
Temperature Dewpoint
-35°C / -31°F -38°C / -36°F
Humidity Altimeter Pressure
74% 30.38" Hg 1035.3 hPa